createdAt,value
2019-05-23T00:00:06.185Z,20.12
2019-05-23T00:01:06.167Z,20.08
2019-05-23T00:02:06.142Z,20.08
2019-05-23T00:03:06.120Z,20.06
2019-05-23T00:04:06.101Z,20.13
2019-05-23T00:05:06.131Z,20.03
2019-05-23T00:06:06.078Z,20.09
2019-05-23T00:07:06.067Z,20.06
2019-05-23T00:08:06.064Z,20.06
2019-05-23T00:09:06.055Z,20.09
2019-05-23T00:10:06.042Z,20.08
2019-05-23T00:11:06.057Z,20.10
2019-05-23T00:12:06.023Z,20.12
2019-05-23T00:13:06.010Z,20.13
2019-05-23T00:14:06.015Z,20.00
2019-05-23T00:15:05.986Z,20.06
2019-05-23T00:16:06.002Z,20.06
2019-05-23T00:17:05.986Z,20.00
2019-05-23T00:18:06.067Z,20.03
2019-05-23T00:19:05.940Z,20.03
2019-05-23T00:20:05.937Z,19.97
2019-05-23T00:21:05.961Z,20.05
2019-05-23T00:22:05.907Z,20.05
2019-05-23T00:23:05.897Z,20.03
2019-05-23T00:24:05.885Z,20.06
2019-05-23T00:25:05.882Z,20.06
2019-05-23T00:26:05.895Z,19.97
2019-05-23T00:27:05.857Z,20.06
2019-05-23T00:28:05.847Z,20.03
2019-05-23T00:29:09.906Z,20.02
2019-05-23T00:30:05.820Z,20.03
2019-05-23T00:31:05.844Z,20.02
2019-05-23T00:32:05.809Z,20.03
2019-05-23T00:33:05.785Z,20.06
2019-05-23T00:34:05.776Z,20.03
2019-05-23T00:35:05.765Z,20.03
2019-05-23T00:36:05.802Z,20.02
2019-05-23T00:37:05.759Z,20.05
2019-05-23T00:38:05.741Z,19.98
2019-05-23T00:39:05.722Z,19.97
2019-05-23T00:40:05.708Z,20.03
2019-05-23T00:41:05.710Z,20.08
2019-05-23T00:42:05.720Z,20.03
2019-05-23T00:43:05.695Z,20.03
2019-05-23T00:44:05.667Z,20.06
2019-05-23T00:45:05.661Z,20.03
2019-05-23T00:46:05.659Z,20.03
2019-05-23T00:47:05.659Z,20.03
2019-05-23T00:48:05.716Z,20.00
2019-05-23T00:49:05.625Z,20.03
2019-05-23T00:50:05.619Z,20.08
2019-05-23T00:51:05.637Z,20.00
2019-05-23T00:52:05.615Z,20.02
2019-05-23T00:53:05.569Z,20.03
2019-05-23T00:54:05.577Z,20.00
2019-05-23T00:55:05.555Z,19.97
2019-05-23T00:56:05.538Z,20.02
2019-05-23T00:57:05.555Z,20.05
2019-05-23T00:58:05.515Z,19.91
2019-05-23T00:59:05.506Z,20.02
2019-05-23T01:00:05.502Z,19.98
2019-05-23T01:01:05.487Z,19.91
2019-05-23T01:02:05.512Z,20.02
2019-05-23T01:03:05.464Z,20.05
2019-05-23T01:04:05.462Z,19.94
2019-05-23T01:05:05.441Z,20.02
2019-05-23T01:06:05.449Z,19.98
2019-05-23T01:07:05.455Z,19.95
2019-05-23T01:08:05.450Z,20.03
2019-05-23T01:09:05.397Z,19.98
2019-05-23T01:10:05.398Z,19.93
2019-05-23T01:11:05.378Z,19.93
2019-05-23T01:12:05.365Z,20.02
2019-05-23T01:13:05.396Z,19.95
2019-05-23T01:14:05.344Z,20.02
2019-05-23T01:15:05.337Z,19.90
2019-05-23T01:16:05.320Z,19.98
2019-05-23T01:17:05.311Z,19.98
2019-05-23T01:18:05.328Z,19.94
2019-05-23T01:19:05.291Z,20.00
2019-05-23T01:20:05.284Z,19.97
2019-05-23T01:21:05.281Z,20.06
2019-05-23T01:22:05.300Z,19.93
2019-05-23T01:23:05.293Z,19.93
2019-05-23T01:24:05.239Z,20.03
2019-05-23T01:25:05.223Z,19.91
2019-05-23T01:26:05.215Z,19.90
2019-05-23T01:27:05.257Z,19.90
2019-05-23T01:28:05.226Z,19.93
2019-05-23T01:29:05.186Z,19.88
2019-05-23T01:30:05.178Z,19.98
2019-05-23T01:31:05.172Z,19.90
2019-05-23T01:32:05.152Z,19.91
2019-05-23T01:33:05.177Z,19.88
2019-05-23T01:34:05.139Z,20.00
2019-05-23T01:35:05.120Z,19.90
2019-05-23T01:36:05.106Z,19.88
2019-05-23T01:37:05.097Z,19.95
2019-05-23T01:38:05.117Z,19.90
2019-05-23T01:39:05.088Z,20.00
2019-05-23T01:40:05.094Z,19.93
2019-05-23T01:41:05.070Z,19.90
2019-05-23T01:42:05.056Z,19.87
2019-05-23T01:43:05.061Z,19.93
2019-05-23T01:44:05.020Z,20.02
2019-05-23T01:45:05.015Z,19.91
2019-05-23T01:46:05.006Z,19.87
2019-05-23T01:47:04.987Z,19.91
2019-05-23T01:48:05.017Z,19.86
2019-05-23T01:49:04.966Z,19.91
2019-05-23T01:50:04.958Z,19.93
2019-05-23T01:51:04.949Z,19.91
2019-05-23T01:52:04.942Z,19.86
2019-05-23T01:53:04.927Z,19.84
2019-05-23T01:54:04.950Z,19.90
2019-05-23T01:55:04.914Z,19.90
2019-05-23T01:56:04.891Z,19.93
2019-05-23T01:57:04.882Z,19.88
2019-05-23T01:58:04.889Z,19.93
2019-05-23T01:59:04.884Z,19.87
2019-05-23T02:00:10.568Z,19.93
2019-05-23T02:01:05.833Z,19.94
2019-05-23T02:02:04.828Z,19.93
2019-05-23T02:03:04.821Z,19.90
2019-05-23T02:04:04.848Z,19.98
2019-05-23T02:05:04.798Z,19.91
2019-05-23T02:06:04.780Z,19.91
2019-05-23T02:07:04.771Z,19.93
2019-05-23T02:08:04.772Z,19.90
2019-05-23T02:09:04.782Z,19.91
2019-05-23T02:10:04.758Z,19.91
2019-05-23T02:11:04.734Z,19.93
2019-05-23T02:12:04.715Z,19.84
2019-05-23T02:13:04.705Z,19.88
2019-05-23T02:14:04.723Z,19.88
2019-05-23T02:15:04.712Z,19.87
2019-05-23T02:16:04.679Z,19.91
2019-05-23T02:17:04.664Z,19.86
2019-05-23T02:18:04.670Z,19.90
2019-05-23T02:19:04.676Z,19.90
2019-05-23T02:20:04.632Z,19.90
2019-05-23T02:21:04.630Z,19.87
2019-05-23T02:22:04.608Z,19.98
2019-05-23T02:23:04.604Z,19.93
2019-05-23T02:24:04.610Z,19.94
2019-05-23T02:25:04.632Z,19.94
2019-05-23T02:26:04.565Z,19.91
2019-05-23T02:27:04.571Z,19.86
2019-05-23T02:28:04.544Z,19.87
2019-05-23T02:29:04.578Z,19.86
2019-05-23T02:30:04.612Z,19.84
2019-05-23T02:31:04.555Z,19.91
2019-05-23T02:32:04.513Z,19.88
2019-05-23T02:33:04.490Z,19.91
2019-05-23T02:34:04.513Z,19.87
2019-05-23T02:35:04.469Z,19.93
2019-05-23T02:36:04.497Z,19.91
2019-05-23T02:37:04.448Z,19.94
2019-05-23T02:38:04.436Z,19.97
2019-05-23T02:39:04.451Z,19.88
2019-05-23T02:40:04.420Z,19.94
2019-05-23T02:41:04.430Z,19.88
2019-05-23T02:42:04.394Z,19.93
2019-05-23T02:43:04.382Z,19.93
2019-05-23T02:44:04.378Z,19.91
2019-05-23T02:45:04.387Z,19.94
2019-05-23T02:46:04.355Z,19.93
2019-05-23T02:47:04.348Z,19.87
2019-05-23T02:48:04.329Z,19.86
2019-05-23T02:49:04.318Z,19.88
2019-05-23T02:50:04.341Z,19.90
2019-05-23T02:51:04.307Z,19.86
2019-05-23T02:52:04.289Z,19.91
2019-05-23T02:53:04.273Z,19.90
2019-05-23T02:54:04.271Z,19.90
2019-05-23T02:55:04.289Z,19.90
2019-05-23T02:56:04.246Z,19.87
2019-05-23T02:57:04.234Z,19.73
2019-05-23T02:58:04.223Z,19.88
2019-05-23T02:59:04.211Z,19.78
2019-05-23T03:00:04.220Z,19.87
2019-05-23T03:01:04.189Z,19.83
2019-05-23T03:02:04.193Z,19.90
2019-05-23T03:03:04.201Z,19.88
2019-05-23T03:04:04.161Z,19.86
2019-05-23T03:05:04.173Z,19.86
2019-05-23T03:06:04.140Z,19.87
2019-05-23T03:07:04.170Z,19.90
2019-05-23T03:08:04.132Z,19.88
2019-05-23T03:09:04.104Z,19.84
2019-05-23T03:10:04.094Z,19.75
2019-05-23T03:11:04.108Z,19.83
2019-05-23T03:12:04.096Z,19.88
2019-05-23T03:13:04.059Z,19.88
2019-05-23T03:14:04.050Z,19.84
2019-05-23T03:15:04.036Z,19.78
2019-05-23T03:16:04.053Z,19.83
2019-05-23T03:17:04.054Z,19.88
2019-05-23T03:18:04.074Z,19.76
2019-05-23T03:19:04.003Z,19.80
2019-05-23T03:20:03.988Z,19.83
2019-05-23T03:21:04.021Z,19.84
2019-05-23T03:22:03.968Z,19.83
2019-05-23T03:23:03.952Z,19.76
2019-05-23T03:24:03.945Z,19.87
2019-05-23T03:25:03.939Z,19.83
2019-05-23T03:26:03.959Z,19.87
2019-05-23T03:27:03.947Z,19.79
2019-05-23T03:28:03.902Z,19.79
2019-05-23T03:29:03.890Z,19.79
2019-05-23T03:30:03.888Z,19.76
2019-05-23T03:31:26.916Z,19.78
2019-05-23T03:32:04.858Z,19.91
2019-05-23T03:33:03.845Z,19.79
2019-05-23T03:34:03.870Z,19.78
2019-05-23T03:35:03.839Z,19.86
2019-05-23T03:36:03.843Z,19.83
2019-05-23T03:37:03.845Z,19.79
2019-05-23T03:38:03.835Z,19.83
2019-05-23T03:39:03.778Z,19.80
2019-05-23T03:40:03.765Z,19.84
2019-05-23T03:41:03.760Z,19.78
2019-05-23T03:42:03.775Z,19.79
2019-05-23T03:43:03.768Z,19.79
2019-05-23T03:44:03.732Z,19.72
2019-05-23T03:45:03.714Z,19.72
2019-05-23T03:46:03.709Z,19.78
2019-05-23T03:47:03.730Z,19.80
2019-05-23T03:48:03.683Z,19.79
2019-05-23T03:49:03.672Z,19.80
2019-05-23T03:50:03.667Z,19.76
2019-05-23T03:51:03.646Z,19.83
2019-05-23T03:52:03.665Z,19.79
2019-05-23T03:53:03.622Z,19.80
2019-05-23T03:54:03.621Z,19.79
2019-05-23T03:55:03.610Z,19.76
2019-05-23T03:56:03.604Z,19.76
2019-05-23T03:57:03.626Z,19.80
2019-05-23T03:58:03.579Z,19.75
2019-05-23T03:59:03.563Z,19.80
2019-05-23T04:00:03.553Z,19.80
2019-05-23T04:01:03.535Z,19.72
2019-05-23T04:02:03.555Z,19.76
2019-05-23T04:03:03.562Z,19.73
2019-05-23T04:04:03.534Z,19.75
2019-05-23T04:05:03.515Z,19.76
2019-05-23T04:06:03.500Z,19.80
2019-05-23T04:07:03.476Z,19.78
2019-05-23T04:08:03.491Z,19.80
2019-05-23T04:09:03.461Z,19.73
2019-05-23T04:10:03.448Z,19.78
2019-05-23T04:11:03.438Z,19.75
2019-05-23T04:12:03.419Z,19.73
2019-05-23T04:13:03.438Z,19.70
2019-05-23T04:14:03.405Z,19.76
2019-05-23T04:15:03.395Z,19.73
2019-05-23T04:16:03.389Z,19.73
2019-05-23T04:17:03.395Z,19.72
2019-05-23T04:18:03.398Z,19.73
2019-05-23T04:19:03.345Z,19.75
2019-05-23T04:20:03.342Z,19.73
2019-05-23T04:21:03.333Z,19.69
2019-05-23T04:22:03.311Z,19.72
2019-05-23T04:23:03.332Z,19.69
2019-05-23T04:24:03.289Z,19.76
2019-05-23T04:25:03.280Z,19.73
2019-05-23T04:26:03.283Z,19.69
2019-05-23T04:27:03.290Z,19.70
2019-05-23T04:28:03.295Z,19.75
2019-05-23T04:29:03.267Z,19.65
2019-05-23T04:30:03.231Z,19.76
2019-05-23T04:31:03.214Z,19.70
2019-05-23T04:32:08.715Z,19.75
2019-05-23T04:33:04.220Z,19.70
2019-05-23T04:34:03.186Z,19.70
2019-05-23T04:35:03.181Z,19.70
2019-05-23T04:36:03.160Z,19.68
2019-05-23T04:37:03.155Z,19.72
2019-05-23T04:38:03.180Z,19.69
2019-05-23T04:39:03.157Z,19.73
2019-05-23T04:40:03.124Z,19.68
2019-05-23T04:41:03.105Z,19.69
2019-05-23T04:42:03.100Z,19.69
2019-05-23T04:43:03.118Z,19.73
2019-05-23T04:44:03.120Z,19.68
2019-05-23T04:45:03.085Z,19.68
2019-05-23T04:46:03.074Z,19.65
2019-05-23T04:47:03.059Z,19.68
2019-05-23T04:48:03.053Z,19.70
2019-05-23T04:49:03.048Z,19.69
2019-05-23T04:50:03.027Z,19.73
2019-05-23T04:51:02.998Z,19.72
2019-05-23T04:52:02.993Z,19.73
2019-05-23T04:53:02.979Z,19.73
2019-05-23T04:54:02.995Z,19.75
2019-05-23T04:55:02.985Z,19.65
2019-05-23T04:56:02.943Z,19.72
2019-05-23T04:57:02.940Z,19.72
2019-05-23T04:58:04.482Z,19.72
2019-05-23T04:59:02.915Z,19.68
2019-05-23T05:00:02.930Z,19.73
2019-05-23T05:01:02.891Z,19.61
2019-05-23T05:02:02.921Z,19.75
2019-05-23T05:03:02.870Z,19.73
2019-05-23T05:04:02.930Z,19.73
2019-05-23T05:05:02.867Z,19.73
2019-05-23T05:06:02.835Z,19.65
2019-05-23T05:07:02.824Z,19.70
2019-05-23T05:08:02.888Z,19.69
2019-05-23T05:09:02.815Z,19.68
2019-05-23T05:10:02.822Z,19.69
2019-05-23T05:11:02.793Z,19.70
2019-05-23T05:12:02.773Z,19.69
2019-05-23T05:13:02.765Z,19.70
2019-05-23T05:14:02.752Z,19.70
2019-05-23T05:15:02.766Z,19.66
2019-05-23T05:16:02.735Z,19.70
2019-05-23T05:17:02.727Z,19.76
2019-05-23T05:18:02.721Z,19.72
2019-05-23T05:19:02.725Z,19.72
2019-05-23T05:20:02.748Z,19.72
2019-05-23T05:21:02.677Z,19.69
2019-05-23T05:22:02.669Z,19.65
2019-05-23T05:23:02.661Z,19.66
2019-05-23T05:24:02.667Z,19.68
2019-05-23T05:25:02.655Z,19.70
2019-05-23T05:26:02.628Z,19.72
2019-05-23T05:27:02.622Z,19.66
2019-05-23T05:28:02.598Z,19.70
2019-05-23T05:29:02.619Z,19.72
2019-05-23T05:30:02.617Z,19.76
2019-05-23T05:31:02.600Z,19.72
2019-05-23T05:32:04.013Z,19.63
2019-05-23T05:33:02.544Z,19.69
2019-05-23T05:34:02.533Z,19.68
2019-05-23T05:35:02.568Z,19.66
2019-05-23T05:36:02.514Z,19.69
2019-05-23T05:37:02.507Z,19.73
2019-05-23T05:38:02.490Z,19.68
2019-05-23T05:39:02.484Z,19.73
2019-05-23T05:40:02.493Z,19.65
2019-05-23T05:41:02.505Z,19.69
2019-05-23T05:42:02.454Z,19.70
2019-05-23T05:43:02.440Z,19.69
2019-05-23T05:44:02.425Z,19.69
2019-05-23T05:45:02.454Z,19.76
2019-05-23T05:46:02.438Z,19.68
2019-05-23T05:47:02.398Z,19.76
2019-05-23T05:48:02.389Z,19.70
2019-05-23T05:49:02.537Z,19.65
2019-05-23T05:50:02.369Z,19.66
2019-05-23T05:51:02.381Z,19.75
2019-05-23T05:52:02.340Z,19.72
2019-05-23T05:53:02.327Z,19.68
2019-05-23T05:54:02.350Z,19.75
2019-05-23T05:55:02.307Z,19.73
2019-05-23T05:56:02.335Z,19.75
2019-05-23T05:57:02.290Z,19.68
2019-05-23T05:58:02.298Z,19.65
2019-05-23T05:59:02.270Z,19.69
2019-05-23T06:00:02.261Z,19.72
2019-05-23T06:01:02.290Z,19.73
2019-05-23T06:02:02.240Z,19.72
2019-05-23T06:03:05.355Z,19.73
2019-05-23T06:04:02.208Z,19.78
2019-05-23T06:05:02.211Z,19.76
2019-05-23T06:06:02.217Z,19.73
2019-05-23T06:07:02.240Z,19.75
2019-05-23T06:08:02.167Z,19.73
2019-05-23T06:09:02.157Z,19.80
2019-05-23T06:10:02.198Z,19.75
2019-05-23T06:11:02.171Z,19.80
2019-05-23T06:12:02.129Z,19.76
2019-05-23T06:13:02.118Z,19.73
2019-05-23T06:14:02.103Z,19.78
2019-05-23T06:15:03.558Z,19.73
2019-05-23T06:16:02.103Z,19.73
2019-05-23T06:17:02.094Z,19.73
2019-05-23T06:18:02.133Z,19.84
2019-05-23T06:19:02.049Z,19.79
2019-05-23T06:20:02.115Z,19.79
2019-05-23T06:21:02.030Z,19.75
2019-05-23T06:22:02.049Z,19.80
2019-05-23T06:23:02.007Z,19.84
2019-05-23T06:24:01.994Z,19.75
2019-05-23T06:25:02.482Z,19.73
2019-05-23T06:26:01.975Z,19.80
2019-05-23T06:27:01.986Z,19.79
2019-05-23T06:28:01.954Z,19.75
2019-05-23T06:29:01.942Z,19.76
2019-05-23T06:30:01.993Z,19.78
2019-05-23T06:31:01.918Z,19.73
2019-05-23T06:32:01.936Z,19.78
2019-05-23T06:33:01.907Z,19.75
2019-05-23T06:34:01.887Z,19.78
2019-05-23T06:35:01.910Z,19.75
2019-05-23T06:36:02.009Z,19.79
2019-05-23T06:37:01.882Z,19.83
2019-05-23T06:38:01.874Z,19.84
2019-05-23T06:39:01.833Z,19.79
2019-05-23T06:40:01.999Z,19.79
2019-05-23T06:41:01.813Z,19.79
2019-05-23T06:42:01.799Z,19.75
2019-05-23T06:43:01.823Z,19.83
2019-05-23T06:44:01.785Z,19.84
2019-05-23T06:45:01.796Z,19.80
2019-05-23T06:46:01.757Z,19.84
2019-05-23T06:47:01.784Z,19.84
2019-05-23T06:48:01.766Z,19.80
2019-05-23T06:49:01.804Z,19.78
2019-05-23T06:50:01.842Z,19.87
2019-05-23T06:51:01.722Z,19.79
2019-05-23T06:52:01.691Z,19.80
2019-05-23T06:53:02.233Z,19.88
2019-05-23T06:54:01.671Z,19.84
2019-05-23T06:55:01.705Z,19.76
2019-05-23T06:56:01.652Z,19.79
2019-05-23T06:57:01.655Z,19.84
2019-05-23T06:58:01.657Z,19.78
2019-05-23T06:59:01.642Z,19.87
2019-05-23T07:00:01.605Z,19.84
2019-05-23T07:01:01.606Z,19.83
2019-05-23T07:02:01.590Z,19.83
2019-05-23T07:03:01.870Z,19.90
2019-05-23T07:04:01.567Z,19.88
2019-05-23T07:05:01.564Z,19.83
2019-05-23T07:06:01.544Z,19.80
2019-05-23T07:07:01.529Z,19.94
2019-05-23T07:08:01.559Z,19.78
2019-05-23T07:09:01.518Z,19.75
2019-05-23T07:10:01.859Z,19.86
2019-05-23T07:11:01.491Z,19.84
2019-05-23T07:12:01.481Z,19.84
2019-05-23T07:13:01.496Z,19.88
2019-05-23T07:14:01.459Z,19.88
2019-05-23T07:15:02.043Z,19.75
2019-05-23T07:16:01.448Z,19.88
2019-05-23T07:17:01.428Z,19.93
2019-05-23T07:18:01.422Z,19.90
2019-05-23T07:19:01.438Z,19.76
2019-05-23T07:20:01.391Z,19.90
2019-05-23T07:21:01.388Z,19.86
2019-05-23T07:22:01.371Z,19.87
2019-05-23T07:23:01.375Z,19.90
2019-05-23T07:24:01.381Z,19.94
2019-05-23T07:25:01.334Z,19.87
2019-05-23T07:26:01.333Z,19.90
2019-05-23T07:27:01.350Z,19.87
2019-05-23T07:28:01.405Z,19.91
2019-05-23T07:29:01.320Z,19.88
2019-05-23T07:30:01.374Z,19.88
2019-05-23T07:31:01.279Z,19.91
2019-05-23T07:32:01.271Z,19.90
2019-05-23T07:33:01.255Z,19.94
2019-05-23T07:34:02.611Z,19.90
2019-05-23T07:35:01.255Z,19.87
2019-05-23T07:36:01.216Z,19.87
2019-05-23T07:37:01.217Z,19.87
2019-05-23T07:38:01.200Z,19.87
2019-05-23T07:39:01.372Z,19.90
2019-05-23T07:40:01.187Z,19.86
2019-05-23T07:41:01.188Z,19.86
2019-05-23T07:42:01.154Z,19.87
2019-05-23T07:43:01.141Z,19.91
2019-05-23T07:44:01.175Z,19.98
2019-05-23T07:45:01.210Z,19.91
2019-05-23T07:46:01.112Z,19.87
2019-05-23T07:47:01.115Z,19.93
2019-05-23T07:48:01.162Z,20.00
2019-05-23T07:49:01.078Z,19.91
2019-05-23T07:50:02.043Z,20.00
2019-05-23T07:51:01.075Z,19.87
2019-05-23T07:52:01.043Z,20.02
2019-05-23T07:53:01.034Z,19.93
2019-05-23T07:54:01.025Z,20.00
2019-05-23T07:55:01.054Z,19.94
2019-05-23T07:56:01.020Z,20.00
2019-05-23T07:57:00.999Z,19.91
2019-05-23T07:58:00.996Z,20.06
2019-05-23T07:59:00.966Z,19.94
2019-05-23T08:00:00.985Z,20.02
2019-05-23T08:01:00.953Z,20.02
2019-05-23T08:02:00.942Z,20.05
2019-05-23T08:03:00.943Z,20.02
2019-05-23T08:04:17.983Z,19.94
2019-05-23T08:05:01.984Z,20.02
2019-05-23T08:06:01.062Z,19.97
2019-05-23T08:07:00.880Z,20.02
2019-05-23T08:08:00.920Z,20.02
2019-05-23T08:09:00.865Z,20.00
2019-05-23T08:10:00.854Z,20.08
2019-05-23T08:11:00.870Z,20.05
2019-05-23T08:12:00.831Z,20.03
2019-05-23T08:13:00.823Z,20.03
2019-05-23T08:14:00.818Z,20.03
2019-05-23T08:15:00.799Z,20.02
2019-05-23T08:16:00.810Z,20.02
2019-05-23T08:17:00.784Z,20.06
2019-05-23T08:18:00.778Z,20.05
2019-05-23T08:19:00.760Z,20.03
2019-05-23T08:20:00.769Z,20.06
2019-05-23T08:21:00.773Z,20.05
2019-05-23T08:22:00.725Z,20.02
2019-05-23T08:23:00.713Z,20.00
2019-05-23T08:24:00.705Z,20.00
2019-05-23T08:25:00.701Z,20.00
2019-05-23T08:26:00.712Z,20.03
2019-05-23T08:27:00.716Z,20.08
2019-05-23T08:28:00.655Z,20.12
2019-05-23T08:29:24.142Z,20.06
2019-05-23T08:30:02.346Z,20.00
2019-05-23T08:31:00.645Z,20.13
2019-05-23T08:32:00.624Z,20.06
2019-05-23T08:33:00.605Z,20.15
2019-05-23T08:34:00.594Z,20.02
2019-05-23T08:35:00.601Z,20.06
2019-05-23T08:36:00.603Z,20.15
2019-05-23T08:37:00.558Z,20.09
2019-05-23T08:38:00.555Z,20.06
2019-05-23T08:39:00.541Z,20.15
2019-05-23T08:40:00.528Z,20.13
2019-05-23T08:41:00.549Z,20.12
2019-05-23T08:42:00.512Z,20.16
2019-05-23T08:43:00.496Z,20.12
2019-05-23T08:44:00.490Z,20.10
2019-05-23T08:45:00.471Z,20.15
2019-05-23T08:46:00.500Z,20.13
2019-05-23T08:47:00.452Z,20.12
2019-05-23T08:48:00.445Z,20.10
2019-05-23T08:49:00.430Z,20.12
2019-05-23T08:50:00.431Z,20.20
2019-05-23T08:51:00.434Z,20.16
2019-05-23T08:52:00.397Z,20.20
2019-05-23T08:53:00.391Z,20.18
2019-05-23T08:54:00.375Z,20.20
2019-05-23T08:55:00.368Z,20.20
2019-05-23T08:56:00.398Z,20.18
2019-05-23T08:57:00.434Z,20.20
2019-05-23T08:58:00.334Z,20.15
2019-05-23T08:59:00.322Z,20.23
2019-05-23T09:00:00.311Z,20.20
2019-05-23T09:01:00.333Z,20.09
2019-05-23T09:02:00.289Z,20.18
2019-05-23T09:03:00.286Z,20.20
2019-05-23T09:04:00.270Z,20.24
2019-05-23T09:05:05.318Z,20.13
2019-05-23T09:06:01.274Z,20.23
2019-05-23T09:07:00.275Z,20.23
2019-05-23T09:08:00.225Z,20.23
2019-05-23T09:09:00.221Z,20.13
2019-05-23T09:10:00.230Z,20.23
2019-05-23T09:11:00.223Z,20.12
2019-05-23T09:12:00.209Z,20.20
2019-05-23T09:13:00.170Z,20.23
2019-05-23T09:14:00.164Z,20.21
2019-05-23T09:15:00.159Z,20.24
2019-05-23T09:16:00.143Z,20.21
2019-05-23T09:17:00.152Z,20.21
2019-05-23T09:18:00.122Z,20.24
2019-05-23T09:19:00.108Z,20.24
2019-05-23T09:20:00.127Z,20.18
2019-05-23T09:21:00.088Z,20.27
2019-05-23T09:22:00.109Z,20.25
2019-05-23T09:23:00.064Z,20.20
2019-05-23T09:24:00.054Z,20.27
2019-05-23T09:25:00.041Z,20.16
2019-05-23T09:26:00.048Z,20.25
2019-05-23T09:27:00.050Z,20.25
2019-05-23T09:28:00.043Z,20.30
2019-05-23T09:29:00.005Z,20.24
2019-05-23T09:29:59.992Z,20.31
2019-05-23T09:30:59.980Z,20.25
2019-05-23T09:31:59.994Z,20.31
2019-05-23T09:32:59.953Z,20.25
2019-05-23T09:33:59.947Z,20.31
2019-05-23T09:34:59.942Z,20.27
2019-05-23T09:35:59.933Z,20.33
2019-05-23T09:37:00.633Z,20.31
2019-05-23T09:37:59.908Z,20.33
2019-05-23T09:38:59.898Z,20.34
2019-05-23T09:39:59.883Z,20.31
2019-05-23T09:40:59.870Z,20.31
2019-05-23T09:41:59.866Z,20.31
2019-05-23T09:42:59.872Z,20.34
2019-05-23T09:43:59.836Z,20.28
2019-05-23T09:44:59.937Z,20.33
2019-05-23T09:45:59.833Z,20.30
2019-05-23T09:46:59.808Z,20.31
2019-05-23T09:47:59.836Z,20.34
2019-05-23T09:48:59.787Z,20.30
2019-05-23T09:49:59.769Z,20.28
2019-05-23T09:50:59.761Z,20.31
2019-05-23T09:52:01.332Z,20.38
2019-05-23T09:52:59.767Z,20.33
2019-05-23T09:53:59.730Z,20.39
2019-05-23T09:54:59.716Z,20.34
2019-05-23T09:55:59.707Z,20.38
2019-05-23T09:56:59.697Z,20.39
2019-05-23T09:57:59.709Z,20.33
2019-05-23T09:58:59.677Z,20.35
2019-05-23T09:59:59.673Z,20.43
2019-05-23T10:00:59.661Z,20.33
2019-05-23T10:01:59.640Z,20.35
2019-05-23T10:02:59.689Z,20.41
2019-05-23T10:03:59.621Z,20.41
2019-05-23T10:04:59.609Z,20.43
2019-05-23T10:05:59.614Z,20.35
2019-05-23T10:06:59.588Z,20.34
2019-05-23T10:07:59.576Z,20.39
2019-05-23T10:08:59.597Z,20.38
2019-05-23T10:09:59.566Z,20.47
2019-05-23T10:10:59.594Z,20.41
2019-05-23T10:11:59.545Z,20.50
2019-05-23T10:12:59.522Z,20.35
2019-05-23T10:13:59.541Z,20.42
2019-05-23T10:14:59.502Z,20.39
2019-05-23T10:15:59.494Z,20.42
2019-05-23T10:16:59.484Z,20.41
2019-05-23T10:18:00.860Z,20.49
2019-05-23T10:18:59.493Z,20.39
2019-05-23T10:19:59.448Z,20.33
2019-05-23T10:20:59.436Z,20.43
2019-05-23T10:21:59.431Z,20.38
2019-05-23T10:22:59.417Z,20.46
2019-05-23T10:23:59.447Z,20.50
2019-05-23T10:24:59.414Z,20.49
2019-05-23T10:25:59.386Z,20.35
2019-05-23T10:26:59.380Z,20.47
2019-05-23T10:27:59.361Z,20.51
2019-05-23T10:28:59.498Z,20.46
2019-05-23T10:29:59.339Z,20.51
2019-05-23T10:30:59.337Z,20.50
2019-05-23T10:31:59.329Z,20.42
2019-05-23T10:32:59.307Z,20.47
2019-05-23T10:33:59.328Z,20.50
2019-05-23T10:34:59.291Z,20.49
2019-05-23T10:36:01.127Z,20.50
2019-05-23T10:36:59.275Z,20.54
2019-05-23T10:37:59.264Z,20.53
2019-05-23T10:38:59.247Z,20.50
2019-05-23T10:39:59.266Z,20.51
2019-05-23T10:40:59.229Z,20.49
2019-05-23T10:41:59.222Z,20.53
2019-05-23T10:42:59.206Z,20.49
2019-05-23T10:43:59.231Z,20.51
2019-05-23T10:44:59.180Z,20.47
2019-05-23T10:45:59.175Z,20.59
2019-05-23T10:46:59.161Z,20.51
2019-05-23T10:47:59.155Z,20.50
2019-05-23T10:48:59.172Z,20.54
2019-05-23T10:49:59.290Z,20.43
2019-05-23T10:50:59.113Z,20.54
2019-05-23T10:51:59.116Z,20.51
2019-05-23T10:52:59.098Z,20.46
2019-05-23T10:53:59.130Z,20.51
2019-05-23T10:54:59.132Z,20.46
2019-05-23T10:55:59.072Z,20.43
2019-05-23T10:56:59.056Z,20.53
2019-05-23T10:57:59.046Z,20.50
2019-05-23T10:58:59.039Z,20.43
2019-05-23T10:59:59.045Z,20.59
2019-05-23T11:00:59.014Z,20.58
2019-05-23T11:01:59.009Z,20.51
2019-05-23T11:02:59.007Z,20.53
2019-05-23T11:03:58.978Z,20.68
2019-05-23T11:04:59.015Z,20.54
2019-05-23T11:06:14.488Z,20.49
2019-05-23T11:06:59.945Z,20.51
2019-05-23T11:07:58.937Z,20.56
2019-05-23T11:08:58.936Z,20.53
2019-05-23T11:09:58.942Z,20.59
2019-05-23T11:10:58.901Z,20.54
2019-05-23T11:11:58.898Z,20.58
2019-05-23T11:12:58.881Z,20.58
2019-05-23T11:13:58.879Z,20.56
2019-05-23T11:14:58.888Z,20.54
2019-05-23T11:15:58.880Z,20.53
2019-05-23T11:16:58.834Z,20.53
2019-05-23T11:17:58.835Z,20.62
2019-05-23T11:18:58.828Z,20.53
2019-05-23T11:19:58.838Z,20.51
2019-05-23T11:20:58.832Z,20.66
2019-05-23T11:21:58.803Z,20.62
2019-05-23T11:22:58.774Z,20.56
2019-05-23T11:23:58.765Z,20.53
2019-05-23T11:24:58.814Z,20.54
2019-05-23T11:26:01.395Z,20.68
2019-05-23T11:26:58.730Z,20.58
2019-05-23T11:27:58.841Z,20.61
2019-05-23T11:28:58.706Z,20.54
2019-05-23T11:29:58.708Z,20.68
2019-05-23T11:30:58.744Z,20.59
2019-05-23T11:31:58.676Z,20.58
2019-05-23T11:32:58.670Z,20.58
2019-05-23T11:33:58.655Z,20.58
2019-05-23T11:34:58.645Z,20.72
2019-05-23T11:35:58.666Z,20.61
2019-05-23T11:36:58.621Z,20.69
2019-05-23T11:37:58.610Z,20.68
2019-05-23T11:38:58.603Z,20.66
2019-05-23T11:40:00.549Z,20.65
2019-05-23T11:40:58.609Z,20.71
2019-05-23T11:41:58.575Z,20.56
2019-05-23T11:42:58.599Z,20.69
2019-05-23T11:43:58.571Z,20.71
2019-05-23T11:44:58.537Z,20.66
2019-05-23T11:45:58.540Z,20.72
2019-05-23T11:46:58.562Z,20.71
2019-05-23T11:47:58.513Z,20.69
2019-05-23T11:48:58.491Z,20.69
2019-05-23T11:49:58.487Z,20.69
2019-05-23T11:50:58.480Z,20.66
2019-05-23T11:51:58.492Z,20.69
2019-05-23T11:52:58.467Z,20.66
2019-05-23T11:54:07.712Z,20.68
2019-05-23T11:54:59.428Z,20.69
2019-05-23T11:55:58.433Z,20.69
2019-05-23T11:56:58.449Z,20.74
2019-05-23T11:57:58.405Z,20.72
2019-05-23T11:59:01.551Z,20.66
2019-05-23T11:59:58.372Z,20.76
2019-05-23T12:00:58.419Z,20.72
2019-05-23T12:01:58.388Z,20.74
2019-05-23T12:02:58.345Z,20.71
2019-05-23T12:03:58.358Z,20.79
2019-05-23T12:04:58.344Z,20.77
2019-05-23T12:05:58.312Z,20.68
2019-05-23T12:06:58.327Z,20.69
2019-05-23T12:07:58.290Z,20.83
2019-05-23T12:08:58.289Z,20.76
2019-05-23T12:09:58.306Z,20.77
2019-05-23T12:10:58.263Z,20.76
2019-05-23T12:11:58.271Z,20.76
2019-05-23T12:12:58.235Z,20.81
2019-05-23T12:13:58.233Z,20.74
2019-05-23T12:14:58.223Z,20.72
2019-05-23T12:15:58.209Z,20.74
2019-05-23T12:16:58.221Z,20.74
2019-05-23T12:17:58.182Z,20.76
2019-05-23T12:18:58.181Z,20.74
2019-05-23T12:19:58.270Z,20.71
2019-05-23T12:20:59.737Z,20.79
2019-05-23T12:21:58.192Z,20.72
2019-05-23T12:22:58.159Z,20.72
2019-05-23T12:23:58.124Z,20.80
2019-05-23T12:24:58.120Z,20.76
2019-05-23T12:25:58.097Z,20.72
2019-05-23T12:26:58.091Z,20.76
2019-05-23T12:27:58.112Z,20.74
2019-05-23T12:28:58.073Z,20.72
2019-05-23T12:29:58.055Z,20.72
2019-05-23T12:30:58.046Z,20.76
2019-05-23T12:31:58.037Z,20.69
2019-05-23T12:32:58.059Z,20.68
2019-05-23T12:33:58.020Z,20.74
2019-05-23T12:35:10.598Z,20.76
2019-05-23T12:35:59.005Z,20.80
2019-05-23T12:37:17.137Z,20.72
2019-05-23T12:38:02.205Z,20.84
2019-05-23T12:38:57.966Z,20.83
2019-05-23T12:39:57.958Z,20.79
2019-05-23T12:40:57.943Z,20.77
2019-05-23T12:41:57.932Z,20.74
2019-05-23T12:42:57.948Z,20.83
2019-05-23T12:43:57.907Z,20.83
2019-05-23T12:44:57.903Z,20.72
2019-05-23T12:45:57.887Z,20.81
2019-05-23T12:46:57.895Z,20.76
2019-05-23T12:47:57.919Z,20.76
2019-05-23T12:48:57.862Z,20.71
2019-05-23T12:49:57.847Z,20.71
2019-05-23T12:50:57.843Z,20.72
2019-05-23T12:51:57.821Z,20.83